Time;durP1;ratioP1;P1;durP2;ratioP2;P2;SDS_P1;SDS_P2;PMS_P1;PMS_P2;Temp;Humidity;BMP_temperature;BMP_pressure;BME280_temperature;BME280_humidity;BME280_pressure;Samples;Min_cycle;Max_cycle;Signal;HPM_P1;HPM_P2
2021/08/04 00:00:36;;;;;;;1.55;0.85;;;;;;;;;;5007686;28;20037;-46
2021/08/04 00:03:03;;;;;;;0.50;0.50;;;;;;;;;;5008056;28;20030;-46
2021/08/04 00:05:30;;;;;;;1.80;0.68;;;;;;;;;;5006221;28;20433;-46
2021/08/04 00:07:57;;;;;;;0.65;0.65;;;;;;;;;;5007530;28;20038;-46
2021/08/04 00:10:24;;;;;;;0.60;0.60;;;;;;;;;;5008849;28;20046;-46
2021/08/04 00:12:50;;;;;;;0.60;0.60;;;;;;;;;;5003825;28;20042;-46
2021/08/04 00:15:17;;;;;;;1.38;0.60;;;;;;;;;;4995541;28;20037;-44
2021/08/04 00:17:44;;;;;;;1.05;0.60;;;;;;;;;;5002735;28;20100;-45
2021/08/04 00:20:12;;;;;;;0.60;0.60;;;;;;;;;;5003045;28;20046;-47
2021/08/04 00:22:39;;;;;;;2.20;0.55;;;;;;;;;;5004556;28;20053;-48
2021/08/04 00:25:06;;;;;;;0.75;0.70;;;;;;;;;;5002560;28;20042;-44
2021/08/04 00:27:33;;;;;;;0.60;0.60;;;;;;;;;;4998628;28;20051;-46
2021/08/04 00:30:00;;;;;;;0.70;0.70;;;;;;;;;;4998336;28;20039;-45
2021/08/04 00:32:27;;;;;;;1.00;0.70;;;;;;;;;;5006280;28;20125;-44
2021/08/04 00:34:54;;;;;;;0.65;0.65;;;;;;;;;;4994440;28;20482;-48
2021/08/04 00:37:20;;;;;;;0.60;0.60;;;;;;;;;;5010273;28;20064;-45
2021/08/04 00:39:47;;;;;;;0.60;0.60;;;;;;;;;;5007999;28;20038;-45
2021/08/04 00:42:18;;;;;;;0.65;0.65;;;;;;;;;;4998179;28;20061;-46
2021/08/04 00:44:45;;;;;;;0.60;0.60;;;;;;;;;;5009720;28;20069;-46
2021/08/04 00:47:13;;;;;;;0.93;0.93;;;;;;;;;;5006219;28;20038;-45
2021/08/04 00:49:40;;;;;;;0.70;0.70;;;;;;;;;;5007629;28;20049;-47
2021/08/04 00:52:07;;;;;;;0.70;0.70;;;;;;;;;;5004452;28;20092;-46
2021/08/04 00:54:35;;;;;;;0.70;0.70;;;;;;;;;;5012985;28;20038;-49
2021/08/04 00:57:02;;;;;;;0.70;0.70;;;;;;;;;;5011050;28;20140;-45
2021/08/04 00:59:29;;;;;;;2.58;1.20;;;;;;;;;;5009717;28;20141;-46
2021/08/04 01:02:05;;;;;;;0.70;0.70;;;;;;;;;;5008430;28;20467;-46
2021/08/04 01:04:36;;;;;;;0.75;0.60;;;;;;;;;;5012532;28;20068;-46
2021/08/04 01:07:05;;;;;;;0.57;0.57;;;;;;;;;;5012162;28;20066;-46
2021/08/04 01:09:42;;;;;;;0.80;0.60;;;;;;;;;;5008564;28;20498;-46
2021/08/04 01:12:10;;;;;;;0.60;0.60;;;;;;;;;;5012101;28;20037;-44
2021/08/04 01:14:39;;;;;;;1.45;1.35;;;;;;;;;;4996897;28;20046;-45
2021/08/04 01:17:06;;;;;;;0.60;0.60;;;;;;;;;;5010277;28;20092;-45
2021/08/04 01:19:52;;;;;;;0.68;0.68;;;;;;;;;;5011391;28;20038;-44
2021/08/04 01:22:37;;;;;;;0.60;0.60;;;;;;;;;;5012979;28;20092;-49
2021/08/04 01:25:11;;;;;;;0.60;0.60;;;;;;;;;;5007068;28;20134;-45
2021/08/04 01:27:38;;;;;;;0.77;0.70;;;;;;;;;;5011137;28;20589;-44
2021/08/04 01:30:05;;;;;;;0.57;0.57;;;;;;;;;;5012719;28;20069;-47
2021/08/04 01:32:32;;;;;;;0.70;0.70;;;;;;;;;;5012048;28;20045;-45
2021/08/04 01:35:01;;;;;;;0.88;0.70;;;;;;;;;;5008724;28;20116;-43
2021/08/04 01:37:28;;;;;;;0.70;0.70;;;;;;;;;;5005649;28;20042;-45
2021/08/04 01:39:56;;;;;;;0.60;0.60;;;;;;;;;;4996732;28;20144;-46
2021/08/04 01:42:23;;;;;;;0.60;0.60;;;;;;;;;;5011471;28;20117;-44
2021/08/04 01:44:55;;;;;;;0.60;0.60;;;;;;;;;;5009459;28;20497;-45
2021/08/04 01:47:22;;;;;;;1.77;0.60;;;;;;;;;;5010501;28;20034;-48
2021/08/04 01:49:49;;;;;;;0.60;0.60;;;;;;;;;;5010049;28;20833;-45
2021/08/04 01:52:15;;;;;;;0.60;0.60;;;;;;;;;;4999046;28;20049;-46
2021/08/04 01:54:43;;;;;;;0.70;0.70;;;;;;;;;;5011843;28;20050;-47
2021/08/04 01:57:09;;;;;;;1.17;0.65;;;;;;;;;;5007825;28;20472;-44
2021/08/04 01:59:36;;;;;;;0.70;0.70;;;;;;;;;;5009707;28;20046;-45
2021/08/04 02:02:13;;;;;;;1.35;0.70;;;;;;;;;;5003619;28;20101;-46
2021/08/04 02:04:40;;;;;;;1.33;1.13;;;;;;;;;;5007384;28;20088;-45
2021/08/04 02:07:10;;;;;;;0.80;0.80;;;;;;;;;;5004572;28;20395;-44
2021/08/04 02:09:46;;;;;;;2.15;0.70;;;;;;;;;;5005274;28;20061;-44
2021/08/04 02:12:13;;;;;;;2.45;0.80;;;;;;;;;;5000235;28;20038;-45
2021/08/04 02:14:42;;;;;;;0.70;0.70;;;;;;;;;;4999080;28;20050;-44
2021/08/04 02:17:16;;;;;;;0.70;0.70;;;;;;;;;;5005739;28;20046;-45
2021/08/04 02:19:43;;;;;;;0.60;0.60;;;;;;;;;;4986891;28;20061;-45
2021/08/04 02:22:18;;;;;;;0.73;0.73;;;;;;;;;;5007748;28;20033;-44
2021/08/04 02:24:49;;;;;;;0.60;0.60;;;;;;;;;;5009438;28;20032;-44
2021/08/04 02:27:16;;;;;;;0.60;0.60;;;;;;;;;;5010170;28;20065;-43
2021/08/04 02:29:43;;;;;;;1.95;0.60;;;;;;;;;;5006503;28;20065;-44
2021/08/04 02:32:10;;;;;;;0.70;0.70;;;;;;;;;;4998191;28;20529;-49
2021/08/04 02:34:37;;;;;;;0.70;0.70;;;;;;;;;;4962080;28;1160582;-45
2021/08/04 02:37:04;;;;;;;0.70;0.70;;;;;;;;;;5009458;28;20596;-47
2021/08/04 02:39:31;;;;;;;0.70;0.70;;;;;;;;;;5010791;28;20054;-45
2021/08/04 02:41:58;;;;;;;0.73;0.73;;;;;;;;;;5005553;28;20515;-46
2021/08/04 02:44:24;;;;;;;0.65;0.65;;;;;;;;;;5005469;28;20072;-46
2021/08/04 02:46:51;;;;;;;0.68;0.68;;;;;;;;;;5000776;28;20053;-44
2021/08/04 02:49:18;;;;;;;1.02;0.93;;;;;;;;;;5004141;28;20042;-45
2021/08/04 02:51:45;;;;;;;1.10;0.70;;;;;;;;;;5001527;28;20070;-45
2021/08/04 02:54:16;;;;;;;0.68;0.68;;;;;;;;;;5009745;28;20030;-45
2021/08/04 02:56:43;;;;;;;0.70;0.70;;;;;;;;;;5009462;28;20115;-44
2021/08/04 02:59:10;;;;;;;0.73;0.73;;;;;;;;;;4997256;28;20070;-45
2021/08/04 03:01:36;;;;;;;1.50;0.80;;;;;;;;;;5003419;28;20046;-46
2021/08/04 03:04:05;;;;;;;1.35;0.75;;;;;;;;;;4998149;28;20444;-46
2021/08/04 03:06:31;;;;;;;0.85;0.60;;;;;;;;;;5011510;28;20042;-45
2021/08/04 03:08:58;;;;;;;0.93;0.80;;;;;;;;;;5010401;28;20042;-47
2021/08/04 03:11:25;;;;;;;0.70;0.70;;;;;;;;;;5010673;28;20474;-47
2021/08/04 03:13:51;;;;;;;0.70;0.70;;;;;;;;;;5007732;28;20370;-49
2021/08/04 03:16:18;;;;;;;0.70;0.70;;;;;;;;;;4994114;28;20066;-44
2021/08/04 03:18:45;;;;;;;1.33;0.70;;;;;;;;;;5002655;28;20372;-45
2021/08/04 03:21:12;;;;;;;0.80;0.80;;;;;;;;;;5009408;28;20038;-44
2021/08/04 03:23:38;;;;;;;0.70;0.70;;;;;;;;;;4995059;28;20387;-46
2021/08/04 03:26:05;;;;;;;7.15;1.50;;;;;;;;;;5003950;28;20039;-44
2021/08/04 03:28:32;;;;;;;0.80;0.80;;;;;;;;;;4996795;28;20041;-47
2021/08/04 03:30:59;;;;;;;1.45;0.70;;;;;;;;;;5009725;28;20045;-48
2021/08/04 03:33:25;;;;;;;1.65;0.80;;;;;;;;;;5009610;28;20030;-50
2021/08/04 03:35:52;;;;;;;0.75;0.75;;;;;;;;;;5004036;28;20082;-48
2021/08/04 03:38:18;;;;;;;0.70;0.70;;;;;;;;;;5008330;28;20529;-46
2021/08/04 03:40:45;;;;;;;0.60;0.60;;;;;;;;;;5009433;28;20046;-46
2021/08/04 03:43:12;;;;;;;1.58;0.85;;;;;;;;;;5008569;28;20069;-44
2021/08/04 03:45:39;;;;;;;0.70;0.70;;;;;;;;;;5008573;28;20038;-48
2021/08/04 03:48:06;;;;;;;0.68;0.68;;;;;;;;;;5009454;28;20042;-46
2021/08/04 03:50:32;;;;;;;1.33;0.70;;;;;;;;;;5004043;28;20061;-44
2021/08/04 03:52:59;;;;;;;1.85;0.70;;;;;;;;;;4995103;28;20041;-44
2021/08/04 03:55:26;;;;;;;1.40;0.80;;;;;;;;;;5000347;28;20104;-46
2021/08/04 03:57:52;;;;;;;0.77;0.73;;;;;;;;;;5001729;28;20065;-47
2021/08/04 04:00:19;;;;;;;3.22;0.80;;;;;;;;;;5009962;28;20506;-45
2021/08/04 04:02:46;;;;;;;3.60;1.08;;;;;;;;;;5002907;28;20034;-48
2021/08/04 04:05:14;;;;;;;0.70;0.70;;;;;;;;;;5001227;28;20045;-45
2021/08/04 04:07:40;;;;;;;1.23;0.70;;;;;;;;;;5002690;28;20513;-45
2021/08/04 04:10:08;;;;;;;0.68;0.68;;;;;;;;;;5009622;28;20088;-47
2021/08/04 04:12:35;;;;;;;0.80;0.77;;;;;;;;;;5008586;28;20052;-47
2021/08/04 04:15:04;;;;;;;0.80;0.80;;;;;;;;;;5008256;28;20141;-45
2021/08/04 04:17:30;;;;;;;3.00;0.80;;;;;;;;;;5005960;28;20046;-45
2021/08/04 04:19:57;;;;;;;0.68;0.68;;;;;;;;;;5005960;28;20378;-47
2021/08/04 04:22:24;;;;;;;1.40;0.60;;;;;;;;;;5008997;28;20034;-46
2021/08/04 04:24:51;;;;;;;1.25;0.68;;;;;;;;;;4998231;28;20050;-44
2021/08/04 04:27:17;;;;;;;0.70;0.70;;;;;;;;;;5009686;28;20541;-46
2021/08/04 04:29:44;;;;;;;0.70;0.70;;;;;;;;;;5008328;28;20045;-48
2021/08/04 04:32:11;;;;;;;0.70;0.70;;;;;;;;;;5002423;28;20041;-45
2021/08/04 04:34:38;;;;;;;1.85;0.80;;;;;;;;;;5005899;28;20044;-45
2021/08/04 04:37:05;;;;;;;1.38;0.70;;;;;;;;;;5003242;28;20053;-48
2021/08/04 04:39:32;;;;;;;1.25;0.70;;;;;;;;;;5009556;28;20053;-46
2021/08/04 04:41:59;;;;;;;0.70;0.70;;;;;;;;;;5007595;28;20065;-48
2021/08/04 04:44:25;;;;;;;0.60;0.60;;;;;;;;;;4992293;28;20108;-47
2021/08/04 04:46:52;;;;;;;1.20;0.70;;;;;;;;;;5005279;28;20437;-46
2021/08/04 04:49:19;;;;;;;5.97;0.70;;;;;;;;;;5002936;28;20057;-44
2021/08/04 04:51:46;;;;;;;0.85;0.80;;;;;;;;;;4999448;28;20046;-46
2021/08/04 04:54:12;;;;;;;0.73;0.73;;;;;;;;;;5002648;28;20038;-45
2021/08/04 04:56:39;;;;;;;2.10;0.73;;;;;;;;;;4994686;28;20046;-48
2021/08/04 04:59:06;;;;;;;0.95;0.80;;;;;;;;;;5008132;28;20042;-45
2021/08/04 05:01:32;;;;;;;2.40;0.77;;;;;;;;;;5007337;28;20070;-46
2021/08/04 05:04:00;;;;;;;2.05;0.70;;;;;;;;;;4998718;28;20038;-49
2021/08/04 05:06:27;;;;;;;1.10;0.80;;;;;;;;;;5003570;28;20088;-46
2021/08/04 05:08:53;;;;;;;3.03;0.80;;;;;;;;;;5004055;28;20041;-46
2021/08/04 05:11:20;;;;;;;0.88;0.80;;;;;;;;;;5006281;28;20042;-45
2021/08/04 05:13:47;;;;;;;1.42;0.82;;;;;;;;;;5008245;28;20057;-47
2021/08/04 05:16:14;;;;;;;2.15;0.70;;;;;;;;;;4995424;28;20070;-46
2021/08/04 05:18:41;;;;;;;0.70;0.70;;;;;;;;;;5001266;28;20040;-46
2021/08/04 05:21:07;;;;;;;1.92;0.80;;;;;;;;;;4992730;28;20034;-46
2021/08/04 05:23:34;;;;;;;0.80;0.80;;;;;;;;;;5002318;28;20044;-52
2021/08/04 05:26:01;;;;;;;3.25;0.80;;;;;;;;;;5007275;28;20066;-52
2021/08/04 05:28:28;;;;;;;2.55;0.88;;;;;;;;;;4999115;28;20113;-53
2021/08/04 05:30:54;;;;;;;2.03;0.80;;;;;;;;;;5007696;28;20715;-53
2021/08/04 05:33:21;;;;;;;2.42;1.00;;;;;;;;;;5019795;28;20100;-51
2021/08/04 05:35:48;;;;;;;0.90;0.90;;;;;;;;;;5011458;28;20088;-53
2021/08/04 05:38:15;;;;;;;1.55;0.73;;;;;;;;;;5006260;28;20050;-54
2021/08/04 05:40:41;;;;;;;1.15;0.80;;;;;;;;;;5007674;28;20050;-52
2021/08/04 05:43:08;;;;;;;2.28;0.80;;;;;;;;;;5008251;28;20042;-52
2021/08/04 05:45:37;;;;;;;0.80;0.80;;;;;;;;;;4996516;28;20053;-53
2021/08/04 05:48:05;;;;;;;1.02;1.02;;;;;;;;;;5003688;28;20567;-52
2021/08/04 05:50:32;;;;;;;2.85;0.90;;;;;;;;;;5001269;28;20034;-53
2021/08/04 05:52:59;;;;;;;0.90;0.90;;;;;;;;;;5012416;28;20034;-53
2021/08/04 05:55:25;;;;;;;3.05;0.80;;;;;;;;;;5006605;28;20088;-53
2021/08/04 05:57:52;;;;;;;0.70;0.70;;;;;;;;;;5010222;28;20072;-52
2021/08/04 06:00:19;;;;;;;2.15;0.80;;;;;;;;;;5002284;28;20089;-53
2021/08/04 06:02:46;;;;;;;0.80;0.80;;;;;;;;;;5003187;28;20475;-53
2021/08/04 06:05:13;;;;;;;0.88;0.80;;;;;;;;;;5011466;28;20038;-53
2021/08/04 06:07:40;;;;;;;3.10;1.42;;;;;;;;;;5006560;28;20050;-53
2021/08/04 06:10:07;;;;;;;1.13;0.70;;;;;;;;;;5005769;28;20506;-52
2021/08/04 06:12:34;;;;;;;0.90;0.90;;;;;;;;;;5000963;28;20043;-53
2021/08/04 06:15:01;;;;;;;1.15;0.60;;;;;;;;;;5004620;28;20053;-52
2021/08/04 06:17:28;;;;;;;0.70;0.70;;;;;;;;;;5009807;28;20038;-53
2021/08/04 06:19:55;;;;;;;0.80;0.70;;;;;;;;;;5002856;28;20042;-50
2021/08/04 06:22:21;;;;;;;1.25;0.70;;;;;;;;;;4998374;28;20046;-53
2021/08/04 06:24:48;;;;;;;0.88;0.70;;;;;;;;;;5007751;28;20117;-52
2021/08/04 06:27:15;;;;;;;0.60;0.60;;;;;;;;;;5005504;28;20045;-51
2021/08/04 06:29:42;;;;;;;0.60;0.60;;;;;;;;;;5009062;28;20038;-53
2021/08/04 06:32:08;;;;;;;2.72;0.60;;;;;;;;;;5002788;28;20475;-53
2021/08/04 06:34:35;;;;;;;1.02;0.70;;;;;;;;;;5000472;28;20108;-53
2021/08/04 06:37:01;;;;;;;1.25;1.15;;;;;;;;;;4998411;28;20034;-52
2021/08/04 06:39:28;;;;;;;2.45;1.77;;;;;;;;;;5005130;28;20060;-54
2021/08/04 06:42:11;;;;;;;0.80;0.70;;;;;;;;;;4996361;28;20054;-51
2021/08/04 06:44:37;;;;;;;1.95;0.80;;;;;;;;;;5010638;28;20053;-52
2021/08/04 06:47:04;;;;;;;0.80;0.75;;;;;;;;;;5009214;28;20066;-53
2021/08/04 06:49:31;;;;;;;0.70;0.70;;;;;;;;;;4994161;28;20132;-54
2021/08/04 06:51:58;;;;;;;4.13;0.98;;;;;;;;;;5005077;28;20045;-51
2021/08/04 06:54:25;;;;;;;0.50;0.50;;;;;;;;;;4996117;28;20045;-53
2021/08/04 06:56:52;;;;;;;0.80;0.70;;;;;;;;;;5005550;28;20069;-53
2021/08/04 06:59:19;;;;;;;0.70;0.70;;;;;;;;;;5004733;28;20045;-52
2021/08/04 07:01:46;;;;;;;8.02;0.70;;;;;;;;;;4992500;28;20038;-53
2021/08/04 07:04:14;;;;;;;0.70;0.70;;;;;;;;;;5004300;28;20038;-53
2021/08/04 07:07:01;;;;;;;0.95;0.95;;;;;;;;;;4997233;28;20050;-53
2021/08/04 07:09:28;;;;;;;2.28;0.70;;;;;;;;;;5005297;28;20030;-52
2021/08/04 07:11:55;;;;;;;3.40;0.70;;;;;;;;;;5005382;28;20065;-53
2021/08/04 07:14:22;;;;;;;1.40;0.60;;;;;;;;;;5007869;28;20057;-52
2021/08/04 07:16:49;;;;;;;0.73;0.60;;;;;;;;;;5002116;28;20062;-52
2021/08/04 07:19:16;;;;;;;0.63;0.60;;;;;;;;;;4999137;28;20088;-53
2021/08/04 07:21:43;;;;;;;0.60;0.60;;;;;;;;;;5009528;28;20049;-54
2021/08/04 07:24:10;;;;;;;0.70;0.70;;;;;;;;;;5007686;28;20044;-54
2021/08/04 07:26:40;;;;;;;0.60;0.60;;;;;;;;;;5001692;28;20988;-53
2021/08/04 07:29:06;;;;;;;0.50;0.50;;;;;;;;;;4998292;28;20384;-54
2021/08/04 07:31:34;;;;;;;1.38;0.50;;;;;;;;;;5003659;28;20111;-54
2021/08/04 07:34:01;;;;;;;0.50;0.50;;;;;;;;;;4992938;28;20133;-53
2021/08/04 07:36:28;;;;;;;0.60;0.60;;;;;;;;;;5008687;28;20034;-54
2021/08/04 07:38:54;;;;;;;1.05;0.50;;;;;;;;;;5009702;28;20364;-53
2021/08/04 07:41:21;;;;;;;0.60;0.60;;;;;;;;;;5001081;28;20040;-54
2021/08/04 07:43:50;;;;;;;0.60;0.60;;;;;;;;;;5009682;28;20042;-53
2021/08/04 07:46:18;;;;;;;1.48;0.80;;;;;;;;;;5007720;28;20037;-53
2021/08/04 07:48:45;;;;;;;0.50;0.50;;;;;;;;;;5008721;28;20070;-54
2021/08/04 07:51:12;;;;;;;0.50;0.50;;;;;;;;;;5006587;28;20586;-54
2021/08/04 07:53:39;;;;;;;0.60;0.60;;;;;;;;;;4997709;28;20097;-55
2021/08/04 07:56:06;;;;;;;1.58;0.60;;;;;;;;;;5005959;28;20057;-54
2021/08/04 07:58:33;;;;;;;1.58;0.50;;;;;;;;;;4998498;28;20037;-53
2021/08/04 08:01:00;;;;;;;1.38;0.60;;;;;;;;;;5008573;28;20045;-54
2021/08/04 08:03:27;;;;;;;0.52;0.52;;;;;;;;;;5008519;28;20050;-54
2021/08/04 08:05:54;;;;;;;1.63;0.60;;;;;;;;;;5010560;28;20121;-54
2021/08/04 08:08:21;;;;;;;0.95;0.70;;;;;;;;;;5008390;28;20407;-53
2021/08/04 08:10:49;;;;;;;1.48;0.60;;;;;;;;;;5009557;28;20030;-54
2021/08/04 08:13:16;;;;;;;1.30;0.52;;;;;;;;;;4998893;28;20038;-54
2021/08/04 08:15:44;;;;;;;0.77;0.50;;;;;;;;;;5000324;28;20037;-54
2021/08/04 08:18:13;;;;;;;0.50;0.50;;;;;;;;;;5009667;28;20044;-54
2021/08/04 08:20:40;;;;;;;0.70;0.50;;;;;;;;;;5002450;28;20046;-54
2021/08/04 08:23:08;;;;;;;0.63;0.40;;;;;;;;;;4993774;28;20042;-53
2021/08/04 08:25:35;;;;;;;0.65;0.65;;;;;;;;;;4998675;28;20035;-54
2021/08/04 08:28:03;;;;;;;0.55;0.55;;;;;;;;;;5002745;28;20164;-54
2021/08/04 08:30:30;;;;;;;0.50;0.50;;;;;;;;;;5004892;28;20041;-54
2021/08/04 08:32:57;;;;;;;0.75;0.75;;;;;;;;;;5003028;28;20594;-55
2021/08/04 08:35:24;;;;;;;1.52;0.50;;;;;;;;;;4996082;28;20087;-54
2021/08/04 08:37:51;;;;;;;2.25;0.68;;;;;;;;;;5006690;28;20054;-55
2021/08/04 08:40:18;;;;;;;1.23;0.60;;;;;;;;;;5006334;28;20050;-54
2021/08/04 08:42:45;;;;;;;1.02;0.50;;;;;;;;;;4999453;28;20458;-54
2021/08/04 08:45:12;;;;;;;0.50;0.50;;;;;;;;;;5008256;28;20038;-53
2021/08/04 08:47:40;;;;;;;3.13;0.50;;;;;;;;;;5008619;28;20095;-54
2021/08/04 08:50:13;;;;;;;2.60;0.50;;;;;;;;;;4994230;28;20398;-54
2021/08/04 08:52:40;;;;;;;0.63;0.50;;;;;;;;;;5002684;28;20041;-54
2021/08/04 08:55:08;;;;;;;0.40;0.40;;;;;;;;;;4995852;28;20883;-55
2021/08/04 08:57:35;;;;;;;1.85;0.60;;;;;;;;;;5002231;28;20570;-54
2021/08/04 09:00:02;;;;;;;1.58;0.60;;;;;;;;;;5007476;28;20228;-54
2021/08/04 09:02:29;;;;;;;2.17;0.50;;;;;;;;;;4995384;28;20043;-55
2021/08/04 09:04:57;;;;;;;0.50;0.50;;;;;;;;;;5007052;28;20138;-54
2021/08/04 09:07:30;;;;;;;1.67;0.50;;;;;;;;;;4997998;28;20544;-54
2021/08/04 09:09:57;;;;;;;1.42;0.50;;;;;;;;;;5010918;28;20048;-54
2021/08/04 09:12:24;;;;;;;2.05;0.50;;;;;;;;;;5011246;28;20037;-54
2021/08/04 09:14:51;;;;;;;1.27;0.60;;;;;;;;;;4995806;28;20050;-54
2021/08/04 09:17:18;;;;;;;0.68;0.50;;;;;;;;;;5010668;28;20539;-55
2021/08/04 09:19:45;;;;;;;0.82;0.40;;;;;;;;;;5011073;28;20046;-53
2021/08/04 09:22:12;;;;;;;1.30;0.50;;;;;;;;;;5000592;28;20049;-53
2021/08/04 09:24:58;;;;;;;1.48;0.50;;;;;;;;;;5005740;28;20042;-54
2021/08/04 09:27:43;;;;;;;0.63;0.50;;;;;;;;;;5002999;28;20041;-53
2021/08/04 09:30:15;;;;;;;0.65;0.50;;;;;;;;;;5008321;28;20045;-54
2021/08/04 09:32:42;;;;;;;0.60;0.50;;;;;;;;;;5012021;28;20437;-55
2021/08/04 09:35:14;;;;;;;1.85;0.60;;;;;;;;;;4994878;28;20693;-54
2021/08/04 09:37:41;;;;;;;0.50;0.50;;;;;;;;;;5012302;28;20205;-55
2021/08/04 09:40:09;;;;;;;0.43;0.43;;;;;;;;;;5009849;28;20144;-54
2021/08/04 09:42:43;;;;;;;0.50;0.50;;;;;;;;;;5013615;28;20419;-54
2021/08/04 09:45:12;;;;;;;0.70;0.50;;;;;;;;;;5009491;28;20050;-54
2021/08/04 09:47:53;;;;;;;4.50;0.40;;;;;;;;;;4996629;28;20561;-55
2021/08/04 09:50:20;;;;;;;0.95;0.50;;;;;;;;;;5023221;28;20401;-54
2021/08/04 09:52:57;;;;;;;0.50;0.50;;;;;;;;;;5017380;28;20050;-54
2021/08/04 09:55:24;;;;;;;0.50;0.40;;;;;;;;;;4995729;28;20034;-54
2021/08/04 09:57:52;;;;;;;1.83;0.40;;;;;;;;;;5005767;28;20081;-54
2021/08/04 10:00:20;;;;;;;5.05;0.40;;;;;;;;;;4998584;28;20042;-55
2021/08/04 10:02:47;;;;;;;0.88;0.47;;;;;;;;;;4998002;28;20039;-54
2021/08/04 10:05:15;;;;;;;0.50;0.50;;;;;;;;;;5008131;28;20126;-54
2021/08/04 10:08:00;;;;;;;1.13;0.47;;;;;;;;;;5008464;28;20042;-55
2021/08/04 10:10:32;;;;;;;0.95;0.40;;;;;;;;;;5019527;28;20022;-55
2021/08/04 10:12:59;;;;;;;0.40;0.40;;;;;;;;;;5011007;28;20100;-54
2021/08/04 10:15:26;;;;;;;4.70;0.40;;;;;;;;;;5009256;28;20030;-54
2021/08/04 10:17:53;;;;;;;6.03;0.70;;;;;;;;;;5010114;28;20038;-54
2021/08/04 10:20:21;;;;;;;15.63;0.80;;;;;;;;;;5006928;28;20485;-54
2021/08/04 10:22:49;;;;;;;2.42;0.50;;;;;;;;;;5011254;28;20487;-54
2021/08/04 10:25:17;;;;;;;1.50;0.40;;;;;;;;;;5012112;28;20443;-55
2021/08/04 10:27:45;;;;;;;0.60;0.40;;;;;;;;;;5010261;28;20042;-54
2021/08/04 10:30:12;;;;;;;2.25;0.40;;;;;;;;;;5006905;28;20049;-54
2021/08/04 10:32:39;;;;;;;3.70;0.40;;;;;;;;;;5004542;28;20471;-54
2021/08/04 10:35:08;;;;;;;0.40;0.40;;;;;;;;;;5004780;28;20069;-54
2021/08/04 10:37:35;;;;;;;2.67;0.50;;;;;;;;;;5008056;28;20046;-55
2021/08/04 10:40:02;;;;;;;0.63;0.40;;;;;;;;;;5010079;28;20053;-53
2021/08/04 10:42:39;;;;;;;2.55;0.40;;;;;;;;;;5010876;28;20092;-55
2021/08/04 10:45:27;;;;;;;0.63;0.40;;;;;;;;;;5015373;28;20461;-55
2021/08/04 10:48:13;;;;;;;0.40;0.40;;;;;;;;;;5010553;28;20056;-55
2021/08/04 10:50:39;;;;;;;0.30;0.30;;;;;;;;;;5010959;28;20033;-54
2021/08/04 10:53:06;;;;;;;2.10;0.40;;;;;;;;;;5008550;28;20038;-55
2021/08/04 10:55:53;;;;;;;0.73;0.40;;;;;;;;;;5020797;28;20129;-56
2021/08/04 10:58:20;;;;;;;0.40;0.40;;;;;;;;;;5006764;28;20044;-54
2021/08/04 11:00:47;;;;;;;2.25;0.50;;;;;;;;;;5000438;28;20026;-56
2021/08/04 11:03:29;;;;;;;0.32;0.30;;;;;;;;;;5011465;28;20042;-55
2021/08/04 11:06:06;;;;;;;0.40;0.40;;;;;;;;;;5008715;28;20462;-55
2021/08/04 11:08:33;;;;;;;2.08;0.40;;;;;;;;;;4993040;28;20046;-54
2021/08/04 11:11:00;;;;;;;0.30;0.30;;;;;;;;;;5010213;28;20603;-55
2021/08/04 11:13:45;;;;;;;0.30;0.30;;;;;;;;;;5001469;28;20402;-56
2021/08/04 11:16:24;;;;;;;0.30;0.30;;;;;;;;;;5005738;28;20077;-55
2021/08/04 11:19:05;;;;;;;0.30;0.30;;;;;;;;;;5005537;28;20133;-55
2021/08/04 11:21:33;;;;;;;0.30;0.30;;;;;;;;;;5008152;28;20046;-55
2021/08/04 11:24:00;;;;;;;1.17;0.30;;;;;;;;;;4995543;28;20540;-55
2021/08/04 11:26:33;;;;;;;1.45;0.35;;;;;;;;;;5007236;28;20116;-56
2021/08/04 11:29:00;;;;;;;0.40;0.40;;;;;;;;;;4994307;28;20042;-56
2021/08/04 11:31:27;;;;;;;0.30;0.30;;;;;;;;;;5001867;28;20121;-55
2021/08/04 11:33:55;;;;;;;1.20;0.30;;;;;;;;;;5001081;28;20047;-55
2021/08/04 11:36:25;;;;;;;0.57;0.30;;;;;;;;;;4994324;28;20450;-55
2021/08/04 11:38:51;;;;;;;1.08;0.30;;;;;;;;;;5005855;28;20049;-52
2021/08/04 11:41:27;;;;;;;1.60;0.30;;;;;;;;;;5007929;28;20042;-51
2021/08/04 11:43:59;;;;;;;0.40;0.40;;;;;;;;;;5008036;28;20038;-53
2021/08/04 11:46:33;;;;;;;0.40;0.40;;;;;;;;;;5009601;28;20065;-53
2021/08/04 11:49:01;;;;;;;0.63;0.40;;;;;;;;;;4992185;28;20121;-53
2021/08/04 11:51:51;;;;;;;1.25;0.30;;;;;;;;;;5008726;28;20084;-52
2021/08/04 11:54:47;;;;;;;2.72;0.82;;;;;;;;;;5002729;28;20038;-52
2021/08/04 11:57:25;;;;;;;0.30;0.30;;;;;;;;;;4972754;28;20078;-53
2021/08/04 11:59:53;;;;;;;2.28;0.30;;;;;;;;;;4987517;28;20038;-52
2021/08/04 12:02:23;;;;;;;1.38;0.30;;;;;;;;;;4987193;28;20089;-48
2021/08/04 12:04:54;;;;;;;0.30;0.30;;;;;;;;;;4987468;28;20092;-51
2021/08/04 12:07:25;;;;;;;0.35;0.30;;;;;;;;;;4986258;28;20057;-50
2021/08/04 12:09:56;;;;;;;0.50;0.30;;;;;;;;;;4986048;28;20126;-51
2021/08/04 12:12:24;;;;;;;0.40;0.30;;;;;;;;;;4984517;28;20050;-52
2021/08/04 12:14:51;;;;;;;0.30;0.30;;;;;;;;;;4984068;28;20050;-53
2021/08/04 12:17:28;;;;;;;0.60;0.30;;;;;;;;;;4983653;28;20039;-53
2021/08/04 12:19:55;;;;;;;0.52;0.30;;;;;;;;;;4984984;28;20065;-53
2021/08/04 12:22:26;;;;;;;1.73;0.30;;;;;;;;;;4985953;28;20057;-50
2021/08/04 12:24:59;;;;;;;0.40;0.40;;;;;;;;;;4985803;28;20061;-50
2021/08/04 12:27:29;;;;;;;3.53;0.38;;;;;;;;;;4986300;28;20047;-52
2021/08/04 12:30:36;;;;;;;0.47;0.30;;;;;;;;;;4986132;28;20054;-52
2021/08/04 12:33:04;;;;;;;1.48;0.30;;;;;;;;;;4936616;29;20498;-51
2021/08/04 12:35:41;;;;;;;2.60;0.32;;;;;;;;;;4944546;28;20062;-51
2021/08/04 12:38:10;;;;;;;0.30;0.30;;;;;;;;;;4949444;28;20106;-53
2021/08/04 12:40:37;;;;;;;0.40;0.40;;;;;;;;;;4952415;29;20134;-51
2021/08/04 12:43:07;;;;;;;0.40;0.40;;;;;;;;;;4949282;28;20458;-51
2021/08/04 12:45:34;;;;;;;1.95;0.30;;;;;;;;;;4943833;28;20062;-51
2021/08/04 12:48:02;;;;;;;1.67;0.35;;;;;;;;;;4943832;29;20673;-50
2021/08/04 12:50:47;;;;;;;0.52;0.50;;;;;;;;;;4944834;29;20055;-51
2021/08/04 12:53:40;;;;;;;0.30;0.30;;;;;;;;;;4953680;28;20055;-53
2021/08/04 12:56:12;;;;;;;0.40;0.40;;;;;;;;;;4950580;29;20047;-50
2021/08/04 12:58:58;;;;;;;2.20;0.35;;;;;;;;;;4947545;28;20166;-51
2021/08/04 13:01:28;;;;;;;0.80;0.40;;;;;;;;;;4950836;29;20078;-51
2021/08/04 13:03:55;;;;;;;0.35;0.35;;;;;;;;;;4981426;28;20050;-52
2021/08/04 13:06:40;;;;;;;0.57;0.40;;;;;;;;;;5013180;28;20041;-50
2021/08/04 13:09:07;;;;;;;3.95;0.47;;;;;;;;;;4995956;28;20046;-52
2021/08/04 13:11:34;;;;;;;3.88;0.40;;;;;;;;;;5011067;28;20121;-51
2021/08/04 13:14:02;;;;;;;0.30;0.30;;;;;;;;;;5010582;28;20053;-52
2021/08/04 13:16:34;;;;;;;1.00;0.40;;;;;;;;;;5013705;28;20577;-51
2021/08/04 13:19:02;;;;;;;1.75;0.70;;;;;;;;;;5012254;28;20038;-52
2021/08/04 13:21:29;;;;;;;0.43;0.30;;;;;;;;;;4995392;28;20070;-52
2021/08/04 13:23:55;;;;;;;0.93;0.38;;;;;;;;;;5007501;28;20054;-53
2021/08/04 13:26:32;;;;;;;1.10;0.30;;;;;;;;;;4998415;28;20426;-52
2021/08/04 13:28:59;;;;;;;2.28;0.40;;;;;;;;;;5010432;28;20045;-51
2021/08/04 13:31:25;;;;;;;1.67;0.30;;;;;;;;;;5007603;28;20352;-51
2021/08/04 13:33:53;;;;;;;0.70;0.40;;;;;;;;;;5009079;28;20386;-51
2021/08/04 13:36:21;;;;;;;0.60;0.38;;;;;;;;;;5003569;28;20054;-51
2021/08/04 13:38:48;;;;;;;0.60;0.40;;;;;;;;;;5002008;28;20125;-50
2021/08/04 13:41:15;;;;;;;1.30;0.40;;;;;;;;;;5011948;28;20041;-51
2021/08/04 13:43:41;;;;;;;0.80;0.30;;;;;;;;;;5008340;28;20038;-52
2021/08/04 13:46:08;;;;;;;0.30;0.30;;;;;;;;;;5003352;28;20053;-51
2021/08/04 13:48:35;;;;;;;0.50;0.30;;;;;;;;;;5008070;28;20038;-50
2021/08/04 13:51:02;;;;;;;0.52;0.30;;;;;;;;;;5012017;28;20052;-51
2021/08/04 13:53:29;;;;;;;4.15;0.40;;;;;;;;;;5004183;28;20529;-51
2021/08/04 13:55:56;;;;;;;0.30;0.30;;;;;;;;;;5007597;28;20042;-53
2021/08/04 13:58:23;;;;;;;0.40;0.40;;;;;;;;;;4996925;28;20069;-53
2021/08/04 14:00:50;;;;;;;0.30;0.30;;;;;;;;;;5003863;28;20046;-51
2021/08/04 14:03:17;;;;;;;0.77;0.32;;;;;;;;;;5011595;28;20053;-51
2021/08/04 14:05:44;;;;;;;1.65;0.40;;;;;;;;;;5007901;28;20065;-52
2021/08/04 14:08:12;;;;;;;0.30;0.30;;;;;;;;;;5009909;28;20087;-52
2021/08/04 14:10:39;;;;;;;1.95;0.75;;;;;;;;;;5010246;28;20033;-52
2021/08/04 14:13:07;;;;;;;2.85;0.30;;;;;;;;;;5010509;28;20438;-53
2021/08/04 14:15:34;;;;;;;2.33;0.30;;;;;;;;;;5010529;28;20100;-52
2021/08/04 14:18:02;;;;;;;1.40;0.40;;;;;;;;;;5008650;28;20042;-52
2021/08/04 14:20:29;;;;;;;1.42;0.28;;;;;;;;;;5006001;28;20061;-53
2021/08/04 14:22:57;;;;;;;3.15;0.30;;;;;;;;;;4999840;28;20041;-53
2021/08/04 14:25:24;;;;;;;0.70;0.40;;;;;;;;;;4998825;28;20039;-52
2021/08/04 14:27:50;;;;;;;0.65;0.30;;;;;;;;;;5009731;28;20129;-53
2021/08/04 14:30:18;;;;;;;0.80;0.32;;;;;;;;;;5006777;28;20069;-52
2021/08/04 14:32:44;;;;;;;0.93;0.30;;;;;;;;;;5004286;28;20662;-53
2021/08/04 14:35:11;;;;;;;0.30;0.30;;;;;;;;;;5000864;28;20526;-52
2021/08/04 14:37:38;;;;;;;0.40;0.30;;;;;;;;;;5009606;28;20063;-51
2021/08/04 14:40:07;;;;;;;0.30;0.30;;;;;;;;;;5010702;28;20048;-53
2021/08/04 14:42:34;;;;;;;0.30;0.30;;;;;;;;;;5010612;28;20789;-49
2021/08/04 14:45:01;;;;;;;0.30;0.30;;;;;;;;;;5010629;28;20046;-53
2021/08/04 14:47:28;;;;;;;1.30;0.30;;;;;;;;;;5009891;28;20041;-53
2021/08/04 14:49:54;;;;;;;1.65;0.45;;;;;;;;;;5011458;28;20497;-52
2021/08/04 14:52:21;;;;;;;1.30;0.30;;;;;;;;;;5006652;28;20073;-52